sensor_id;sensor_type;location;lat;lon;timestamp;P1;durP1;ratioP1;P2;durP2;ratioP2
35743;SDS011;21867;52.012;4.324;2023-04-22T00:01:03;15.77;;;11.87;;
35743;SDS011;21867;52.012;4.324;2023-04-22T00:09:14;21.83;;;13.60;;
35743;SDS011;21867;52.012;4.324;2023-04-22T00:11:42;15.47;;;12.33;;
35743;SDS011;21867;52.012;4.324;2023-04-22T00:14:09;18.90;;;14.33;;
35743;SDS011;21867;52.012;4.324;2023-04-22T00:16:37;16.33;;;12.30;;
35743;SDS011;21867;52.012;4.324;2023-04-22T00:19:04;18.43;;;11.83;;
35743;SDS011;21867;52.012;4.324;2023-04-22T00:21:33;24.33;;;12.27;;
35743;SDS011;21867;52.012;4.324;2023-04-22T00:24:01;15.13;;;11.80;;
35743;SDS011;21867;52.012;4.324;2023-04-22T00:26:30;14.73;;;11.77;;
35743;SDS011;21867;52.012;4.324;2023-04-22T00:28:57;17.37;;;12.90;;
35743;SDS011;21867;52.012;4.324;2023-04-22T00:31:24;13.97;;;11.50;;
35743;SDS011;21867;52.012;4.324;2023-04-22T00:34:04;18.00;;;12.80;;
35743;SDS011;21867;52.012;4.324;2023-04-22T00:56:26;16.40;;;14.63;;
35743;SDS011;21867;52.012;4.324;2023-04-22T00:58:53;16.90;;;13.87;;
35743;SDS011;21867;52.012;4.324;2023-04-22T01:01:21;18.03;;;14.33;;
35743;SDS011;21867;52.012;4.324;2023-04-22T01:03:49;17.67;;;15.77;;
35743;SDS011;21867;52.012;4.324;2023-04-22T01:06:17;19.80;;;14.93;;
35743;SDS011;21867;52.012;4.324;2023-04-22T01:08:57;19.97;;;14.77;;
35743;SDS011;21867;52.012;4.324;2023-04-22T01:13:59;20.27;;;16.17;;
35743;SDS011;21867;52.012;4.324;2023-04-22T01:16:26;18.97;;;16.67;;
35743;SDS011;21867;52.012;4.324;2023-04-22T01:18:53;17.13;;;15.33;;
35743;SDS011;21867;52.012;4.324;2023-04-22T01:21:22;17.97;;;14.73;;
35743;SDS011;21867;52.012;4.324;2023-04-22T01:23:51;15.80;;;13.87;;
35743;SDS011;21867;52.012;4.324;2023-04-22T01:26:19;23.47;;;16.90;;
35743;SDS011;21867;52.012;4.324;2023-04-22T01:28:46;18.17;;;15.67;;
35743;SDS011;21867;52.012;4.324;2023-04-22T01:31:14;18.40;;;15.97;;
35743;SDS011;21867;52.012;4.324;2023-04-22T01:33:41;17.67;;;15.80;;
35743;SDS011;21867;52.012;4.324;2023-04-22T01:36:09;17.53;;;15.67;;
35743;SDS011;21867;52.012;4.324;2023-04-22T01:38:38;18.60;;;16.70;;
35743;SDS011;21867;52.012;4.324;2023-04-22T01:52:27;18.63;;;16.73;;
35743;SDS011;21867;52.012;4.324;2023-04-22T01:54:54;18.23;;;15.70;;
35743;SDS011;21867;52.012;4.324;2023-04-22T02:03:02;17.90;;;16.13;;
35743;SDS011;21867;52.012;4.324;2023-04-22T02:05:29;21.73;;;17.40;;
35743;SDS011;21867;52.012;4.324;2023-04-22T02:07:58;17.40;;;15.60;;
35743;SDS011;21867;52.012;4.324;2023-04-22T02:10:25;21.43;;;17.40;;
35743;SDS011;21867;52.012;4.324;2023-04-22T02:12:53;20.50;;;17.30;;
35743;SDS011;21867;52.012;4.324;2023-04-22T02:15:20;18.60;;;16.70;;
35743;SDS011;21867;52.012;4.324;2023-04-22T02:17:47;20.03;;;17.10;;
35743;SDS011;21867;52.012;4.324;2023-04-22T02:20:15;21.97;;;17.77;;
35743;SDS011;21867;52.012;4.324;2023-04-22T02:22:43;22.30;;;18.10;;
35743;SDS011;21867;52.012;4.324;2023-04-22T02:25:12;19.80;;;16.77;;
35743;SDS011;21867;52.012;4.324;2023-04-22T02:27:56;21.90;;;17.23;;
35743;SDS011;21867;52.012;4.324;2023-04-22T03:50:28;25.10;;;22.40;;
35743;SDS011;21867;52.012;4.324;2023-04-22T03:52:57;26.87;;;24.03;;
35743;SDS011;21867;52.012;4.324;2023-04-22T03:55:25;27.83;;;24.13;;
35743;SDS011;21867;52.012;4.324;2023-04-22T03:57:54;29.30;;;25.13;;
35743;SDS011;21867;52.012;4.324;2023-04-22T05:17:31;31.10;;;27.83;;
35743;SDS011;21867;52.012;4.324;2023-04-22T05:19:59;29.73;;;26.53;;
35743;SDS011;21867;52.012;4.324;2023-04-22T05:22:26;30.07;;;26.77;;
35743;SDS011;21867;52.012;4.324;2023-04-22T05:24:53;30.50;;;26.77;;
35743;SDS011;21867;52.012;4.324;2023-04-22T05:27:23;31.77;;;26.87;;
35743;SDS011;21867;52.012;4.324;2023-04-22T05:29:53;28.47;;;25.43;;
35743;SDS011;21867;52.012;4.324;2023-04-22T05:32:25;31.20;;;27.07;;
35743;SDS011;21867;52.012;4.324;2023-04-22T05:34:53;33.83;;;28.07;;
35743;SDS011;21867;52.012;4.324;2023-04-22T05:37:21;33.30;;;26.27;;
35743;SDS011;21867;52.012;4.324;2023-04-22T05:39:49;32.63;;;26.93;;
35743;SDS011;21867;52.012;4.324;2023-04-22T05:42:16;38.00;;;27.37;;
35743;SDS011;21867;52.012;4.324;2023-04-22T05:44:52;36.13;;;26.70;;
35743;SDS011;21867;52.012;4.324;2023-04-22T05:47:48;30.33;;;26.33;;
35743;SDS011;21867;52.012;4.324;2023-04-22T05:50:54;34.30;;;28.03;;
35743;SDS011;21867;52.012;4.324;2023-04-22T05:53:22;32.83;;;27.30;;
35743;SDS011;21867;52.012;4.324;2023-04-22T05:55:50;31.57;;;28.20;;
35743;SDS011;21867;52.012;4.324;2023-04-22T05:58:17;31.33;;;27.77;;
35743;SDS011;21867;52.012;4.324;2023-04-22T06:00:52;32.57;;;27.77;;
35743;SDS011;21867;52.012;4.324;2023-04-22T06:03:45;29.70;;;26.60;;
35743;SDS011;21867;52.012;4.324;2023-04-22T06:06:14;30.07;;;26.33;;
35743;SDS011;21867;52.012;4.324;2023-04-22T06:08:42;30.83;;;26.70;;
35743;SDS011;21867;52.012;4.324;2023-04-22T06:11:10;31.77;;;28.37;;
35743;SDS011;21867;52.012;4.324;2023-04-22T06:13:37;32.63;;;28.17;;
35743;SDS011;21867;52.012;4.324;2023-04-22T06:16:04;30.67;;;27.37;;
35743;SDS011;21867;52.012;4.324;2023-04-22T06:18:37;30.13;;;26.63;;
35743;SDS011;21867;52.012;4.324;2023-04-22T06:21:09;30.83;;;26.73;;
35743;SDS011;21867;52.012;4.324;2023-04-22T06:23:37;29.00;;;24.60;;
35743;SDS011;21867;52.012;4.324;2023-04-22T06:26:04;29.27;;;25.90;;
35743;SDS011;21867;52.012;4.324;2023-04-22T06:28:33;29.40;;;26.20;;
35743;SDS011;21867;52.012;4.324;2023-04-22T06:31:05;27.90;;;24.93;;
35743;SDS011;21867;52.012;4.324;2023-04-22T06:33:34;28.87;;;25.87;;
35743;SDS011;21867;52.012;4.324;2023-04-22T06:36:01;21.13;;;16.67;;
35743;SDS011;21867;52.012;4.324;2023-04-22T06:38:29;28.27;;;25.27;;
35743;SDS011;21867;52.012;4.324;2023-04-22T06:41:26;31.73;;;26.97;;
35743;SDS011;21867;52.012;4.324;2023-04-22T06:43:58;29.73;;;26.53;;
35743;SDS011;21867;52.012;4.324;2023-04-22T06:46:53;28.83;;;25.77;;
35743;SDS011;21867;52.012;4.324;2023-04-22T06:49:48;28.73;;;25.63;;
35743;SDS011;21867;52.012;4.324;2023-04-22T06:55:14;27.77;;;24.83;;
35743;SDS011;21867;52.012;4.324;2023-04-22T06:57:42;28.17;;;25.27;;
35743;SDS011;21867;52.012;4.324;2023-04-22T07:00:10;28.93;;;25.33;;
35743;SDS011;21867;52.012;4.324;2023-04-22T07:02:39;27.00;;;24.30;;
35743;SDS011;21867;52.012;4.324;2023-04-22T07:05:07;28.13;;;24.33;;
35743;SDS011;21867;52.012;4.324;2023-04-22T07:07:34;28.03;;;24.77;;
35743;SDS011;21867;52.012;4.324;2023-04-22T07:10:02;25.83;;;23.13;;
35743;SDS011;21867;52.012;4.324;2023-04-22T07:12:35;26.03;;;22.93;;
35743;SDS011;21867;52.012;4.324;2023-04-22T07:15:04;24.90;;;22.40;;
35743;SDS011;21867;52.012;4.324;2023-04-22T07:17:31;23.60;;;21.20;;
35743;SDS011;21867;52.012;4.324;2023-04-22T07:19:58;23.90;;;21.50;;
35743;SDS011;21867;52.012;4.324;2023-04-22T07:22:26;25.40;;;22.70;;
35743;SDS011;21867;52.012;4.324;2023-04-22T07:25:09;24.40;;;21.80;;
35743;SDS011;21867;52.012;4.324;2023-04-22T07:27:36;25.17;;;22.60;;
35743;SDS011;21867;52.012;4.324;2023-04-22T07:30:05;23.97;;;21.37;;
35743;SDS011;21867;52.012;4.324;2023-04-22T07:32:33;23.73;;;21.23;;
35743;SDS011;21867;52.012;4.324;2023-04-22T07:40:52;21.63;;;19.33;;
35743;SDS011;21867;52.012;4.324;2023-04-22T07:43:19;17.60;;;15.70;;
35743;SDS011;21867;52.012;4.324;2023-04-22T07:45:48;18.80;;;16.90;;
35743;SDS011;21867;52.012;4.324;2023-04-22T07:48:15;19.23;;;17.20;;
35743;SDS011;21867;52.012;4.324;2023-04-22T07:50:42;17.73;;;15.83;;
35743;SDS011;21867;52.012;4.324;2023-04-22T08:32:42;18.83;;;15.33;;
35743;SDS011;21867;52.012;4.324;2023-04-22T08:35:09;20.40;;;14.63;;
35743;SDS011;21867;52.012;4.324;2023-04-22T08:37:55;18.63;;;15.77;;
35743;SDS011;21867;52.012;4.324;2023-04-22T08:40:22;16.67;;;14.90;;
35743;SDS011;21867;52.012;4.324;2023-04-22T08:42:50;10.83;;;9.83;;
35743;SDS011;21867;52.012;4.324;2023-04-22T08:45:17;7.80;;;7.10;;
35743;SDS011;21867;52.012;4.324;2023-04-22T08:47:46;12.63;;;10.27;;
35743;SDS011;21867;52.012;4.324;2023-04-22T09:03:51;12.63;;;11.33;;
35743;SDS011;21867;52.012;4.324;2023-04-22T09:06:19;13.73;;;11.43;;
35743;SDS011;21867;52.012;4.324;2023-04-22T09:08:47;11.10;;;9.83;;
35743;SDS011;21867;52.012;4.324;2023-04-22T09:11:14;9.67;;;8.53;;
35743;SDS011;21867;52.012;4.324;2023-04-22T09:13:41;8.50;;;7.70;;
35743;SDS011;21867;52.012;4.324;2023-04-22T09:16:09;9.67;;;8.13;;
35743;SDS011;21867;52.012;4.324;2023-04-22T09:18:40;9.67;;;8.43;;
35743;SDS011;21867;52.012;4.324;2023-04-22T09:21:08;12.60;;;11.37;;
35743;SDS011;21867;52.012;4.324;2023-04-22T09:27:23;10.97;;;9.97;;
35743;SDS011;21867;52.012;4.324;2023-04-22T09:29:51;12.07;;;10.87;;
35743;SDS011;21867;52.012;4.324;2023-04-22T09:32:18;7.30;;;6.60;;
35743;SDS011;21867;52.012;4.324;2023-04-22T09:34:48;9.60;;;7.37;;
35743;SDS011;21867;52.012;4.324;2023-04-22T09:37:18;13.43;;;10.13;;
35743;SDS011;21867;52.012;4.324;2023-04-22T09:39:47;11.00;;;10.00;;
35743;SDS011;21867;52.012;4.324;2023-04-22T09:42:15;10.97;;;9.97;;
35743;SDS011;21867;52.012;4.324;2023-04-22T09:44:43;12.83;;;9.77;;
35743;SDS011;21867;52.012;4.324;2023-04-22T09:47:11;10.83;;;9.70;;
35743;SDS011;21867;52.012;4.324;2023-04-22T09:49:38;12.07;;;10.83;;
35743;SDS011;21867;52.012;4.324;2023-04-22T09:52:06;10.77;;;9.67;;
35743;SDS011;21867;52.012;4.324;2023-04-22T09:54:35;12.87;;;8.73;;
35743;SDS011;21867;52.012;4.324;2023-04-22T09:57:03;11.87;;;10.67;;
35743;SDS011;21867;52.012;4.324;2023-04-22T09:59:32;11.33;;;10.23;;
35743;SDS011;21867;52.012;4.324;2023-04-22T10:02:00;11.57;;;10.30;;
35743;SDS011;21867;52.012;4.324;2023-04-22T10:07:32;13.10;;;11.87;;
35743;SDS011;21867;52.012;4.324;2023-04-22T10:10:00;14.27;;;12.80;;
35743;SDS011;21867;52.012;4.324;2023-04-22T10:12:28;14.60;;;13.07;;
35743;SDS011;21867;52.012;4.324;2023-04-22T10:15:01;12.03;;;10.77;;
35743;SDS011;21867;52.012;4.324;2023-04-22T10:17:29;12.97;;;11.67;;
35743;SDS011;21867;52.012;4.324;2023-04-22T10:19:58;13.63;;;12.17;;
35743;SDS011;21867;52.012;4.324;2023-04-22T10:22:26;11.33;;;10.13;;
35743;SDS011;21867;52.012;4.324;2023-04-22T10:24:53;10.60;;;9.43;;
35743;SDS011;21867;52.012;4.324;2023-04-22T10:27:22;12.70;;;11.40;;
35743;SDS011;21867;52.012;4.324;2023-04-22T10:29:49;12.37;;;11.07;;
35743;SDS011;21867;52.012;4.324;2023-04-22T10:32:23;11.67;;;9.67;;
35743;SDS011;21867;52.012;4.324;2023-04-22T10:35:05;20.00;;;17.43;;
35743;SDS011;21867;52.012;4.324;2023-04-22T10:37:41;19.43;;;17.43;;
35743;SDS011;21867;52.012;4.324;2023-04-22T10:40:10;22.60;;;20.20;;
35743;SDS011;21867;52.012;4.324;2023-04-22T10:42:39;23.23;;;20.73;;
35743;SDS011;21867;52.012;4.324;2023-04-22T10:45:10;24.10;;;21.33;;
35743;SDS011;21867;52.012;4.324;2023-04-22T10:47:38;22.27;;;19.87;;
35743;SDS011;21867;52.012;4.324;2023-04-22T10:50:19;24.70;;;22.13;;
35743;SDS011;21867;52.012;4.324;2023-04-22T10:52:48;26.50;;;23.53;;
35743;SDS011;21867;52.012;4.324;2023-04-22T10:55:15;23.43;;;20.87;;
35743;SDS011;21867;52.012;4.324;2023-04-22T10:57:45;25.83;;;22.83;;
35743;SDS011;21867;52.012;4.324;2023-04-22T11:03:18;24.33;;;21.70;;
35743;SDS011;21867;52.012;4.324;2023-04-22T11:05:57;26.33;;;21.37;;
35743;SDS011;21867;52.012;4.324;2023-04-22T11:08:38;23.57;;;21.07;;
35743;SDS011;21867;52.012;4.324;2023-04-22T11:11:09;24.53;;;21.93;;
35743;SDS011;21867;52.012;4.324;2023-04-22T11:13:39;22.20;;;19.90;;
35743;SDS011;21867;52.012;4.324;2023-04-22T11:16:07;23.60;;;21.10;;
35743;SDS011;21867;52.012;4.324;2023-04-22T11:18:34;27.37;;;23.23;;
35743;SDS011;21867;52.012;4.324;2023-04-22T11:21:02;28.63;;;23.80;;
35743;SDS011;21867;52.012;4.324;2023-04-22T11:23:30;26.80;;;23.83;;
35743;SDS011;21867;52.012;4.324;2023-04-22T11:25:58;26.47;;;23.07;;
35743;SDS011;21867;52.012;4.324;2023-04-22T11:28:25;25.33;;;22.63;;
35743;SDS011;21867;52.012;4.324;2023-04-22T11:30:54;23.80;;;21.27;;
35743;SDS011;21867;52.012;4.324;2023-04-22T11:33:26;24.77;;;20.50;;
35743;SDS011;21867;52.012;4.324;2023-04-22T11:35:54;22.13;;;19.73;;
35743;SDS011;21867;52.012;4.324;2023-04-22T11:38:21;26.03;;;22.27;;
35743;SDS011;21867;52.012;4.324;2023-04-22T11:40:48;28.53;;;23.50;;
35743;SDS011;21867;52.012;4.324;2023-04-22T11:43:16;27.13;;;22.40;;
35743;SDS011;21867;52.012;4.324;2023-04-22T11:45:43;24.57;;;21.83;;
35743;SDS011;21867;52.012;4.324;2023-04-22T11:48:13;29.73;;;22.57;;
35743;SDS011;21867;52.012;4.324;2023-04-22T11:50:40;29.70;;;25.00;;
35743;SDS011;21867;52.012;4.324;2023-04-22T11:53:12;29.23;;;25.50;;
35743;SDS011;21867;52.012;4.324;2023-04-22T11:55:39;29.67;;;24.83;;
35743;SDS011;21867;52.012;4.324;2023-04-22T11:58:07;25.67;;;22.60;;
35743;SDS011;21867;52.012;4.324;2023-04-22T12:00:36;28.60;;;23.60;;
35743;SDS011;21867;52.012;4.324;2023-04-22T12:03:05;25.17;;;21.80;;
35743;SDS011;21867;52.012;4.324;2023-04-22T12:05:35;26.00;;;21.93;;
35743;SDS011;21867;52.012;4.324;2023-04-22T12:08:09;28.77;;;24.17;;
35743;SDS011;21867;52.012;4.324;2023-04-22T12:10:43;25.93;;;23.10;;
35743;SDS011;21867;52.012;4.324;2023-04-22T12:13:16;27.90;;;24.03;;
35743;SDS011;21867;52.012;4.324;2023-04-22T12:15:44;28.70;;;25.60;;
35743;SDS011;21867;52.012;4.324;2023-04-22T12:18:11;28.93;;;24.57;;
35743;SDS011;21867;52.012;4.324;2023-04-22T12:42:54;31.60;;;27.20;;
35743;SDS011;21867;52.012;4.324;2023-04-22T12:45:22;28.67;;;25.50;;
35743;SDS011;21867;52.012;4.324;2023-04-22T12:47:49;34.73;;;28.47;;
35743;SDS011;21867;52.012;4.324;2023-04-22T12:55:58;31.40;;;26.80;;
35743;SDS011;21867;52.012;4.324;2023-04-22T12:58:26;32.17;;;27.47;;
35743;SDS011;21867;52.012;4.324;2023-04-22T13:00:54;30.37;;;25.93;;
35743;SDS011;21867;52.012;4.324;2023-04-22T13:03:21;31.97;;;28.23;;
35743;SDS011;21867;52.012;4.324;2023-04-22T13:05:49;32.37;;;27.97;;
35743;SDS011;21867;52.012;4.324;2023-04-22T13:14:13;32.30;;;26.93;;
35743;SDS011;21867;52.012;4.324;2023-04-22T13:16:41;38.40;;;28.87;;
35743;SDS011;21867;52.012;4.324;2023-04-22T13:19:08;34.57;;;26.20;;
35743;SDS011;21867;52.012;4.324;2023-04-22T13:21:35;29.10;;;25.80;;
35743;SDS011;21867;52.012;4.324;2023-04-22T13:24:03;32.27;;;28.67;;
35743;SDS011;21867;52.012;4.324;2023-04-22T13:26:30;35.77;;;27.73;;
35743;SDS011;21867;52.012;4.324;2023-04-22T13:28:57;34.10;;;28.93;;
35743;SDS011;21867;52.012;4.324;2023-04-22T13:31:32;34.97;;;28.63;;
35743;SDS011;21867;52.012;4.324;2023-04-22T13:34:00;35.53;;;26.97;;
35743;SDS011;21867;52.012;4.324;2023-04-22T13:36:27;30.83;;;25.27;;
35743;SDS011;21867;52.012;4.324;2023-04-22T13:41:42;28.43;;;24.00;;
35743;SDS011;21867;52.012;4.324;2023-04-22T13:44:09;33.73;;;28.10;;
35743;SDS011;21867;52.012;4.324;2023-04-22T13:46:38;34.97;;;28.43;;
35743;SDS011;21867;52.012;4.324;2023-04-22T14:11:41;29.23;;;23.50;;
35743;SDS011;21867;52.012;4.324;2023-04-22T14:14:09;31.13;;;24.93;;
35743;SDS011;21867;52.012;4.324;2023-04-22T14:16:36;34.27;;;26.07;;
35743;SDS011;21867;52.012;4.324;2023-04-22T14:19:04;33.07;;;26.83;;
35743;SDS011;21867;52.012;4.324;2023-04-22T14:21:32;30.63;;;24.23;;
35743;SDS011;21867;52.012;4.324;2023-04-22T14:49:13;39.80;;;31.00;;
35743;SDS011;21867;52.012;4.324;2023-04-22T14:51:40;43.60;;;32.77;;
35743;SDS011;21867;52.012;4.324;2023-04-22T14:54:08;43.17;;;30.77;;
35743;SDS011;21867;52.012;4.324;2023-04-22T14:56:35;40.73;;;32.03;;
35743;SDS011;21867;52.012;4.324;2023-04-22T14:59:15;41.60;;;33.13;;
35743;SDS011;21867;52.012;4.324;2023-04-22T15:01:54;41.63;;;30.90;;
35743;SDS011;21867;52.012;4.324;2023-04-22T15:04:23;47.43;;;33.63;;
35743;SDS011;21867;52.012;4.324;2023-04-22T15:06:51;40.87;;;31.23;;
35743;SDS011;21867;52.012;4.324;2023-04-22T15:09:18;44.47;;;32.30;;
35743;SDS011;21867;52.012;4.324;2023-04-22T15:11:45;44.10;;;32.27;;
35743;SDS011;21867;52.012;4.324;2023-04-22T15:14:13;44.50;;;34.93;;
35743;SDS011;21867;52.012;4.324;2023-04-22T15:45:04;37.83;;;29.60;;
35743;SDS011;21867;52.012;4.324;2023-04-22T15:47:31;35.67;;;26.60;;
35743;SDS011;21867;52.012;4.324;2023-04-22T15:49:59;38.90;;;27.63;;
35743;SDS011;21867;52.012;4.324;2023-04-22T15:52:27;35.53;;;26.23;;
35743;SDS011;21867;52.012;4.324;2023-04-22T15:54:54;36.43;;;27.57;;
35743;SDS011;21867;52.012;4.324;2023-04-22T15:57:23;31.73;;;24.80;;
35743;SDS011;21867;52.012;4.324;2023-04-22T15:59:52;38.20;;;27.27;;
35743;SDS011;21867;52.012;4.324;2023-04-22T16:02:40;37.50;;;26.80;;
35743;SDS011;21867;52.012;4.324;2023-04-22T16:05:08;33.77;;;25.03;;
35743;SDS011;21867;52.012;4.324;2023-04-22T16:07:37;29.90;;;24.57;;
35743;SDS011;21867;52.012;4.324;2023-04-22T16:10:04;38.33;;;27.43;;
35743;SDS011;21867;52.012;4.324;2023-04-22T16:12:32;35.80;;;27.13;;
35743;SDS011;21867;52.012;4.324;2023-04-22T16:15:09;33.67;;;25.13;;
35743;SDS011;21867;52.012;4.324;2023-04-22T16:17:37;31.03;;;21.87;;
35743;SDS011;21867;52.012;4.324;2023-04-22T16:20:12;30.43;;;22.93;;
35743;SDS011;21867;52.012;4.324;2023-04-22T16:26:26;27.67;;;21.50;;
35743;SDS011;21867;52.012;4.324;2023-04-22T16:28:53;29.10;;;23.13;;
35743;SDS011;21867;52.012;4.324;2023-04-22T16:31:21;30.03;;;23.70;;
35743;SDS011;21867;52.012;4.324;2023-04-22T16:33:48;27.03;;;20.83;;
35743;SDS011;21867;52.012;4.324;2023-04-22T16:44:46;26.37;;;19.73;;
35743;SDS011;21867;52.012;4.324;2023-04-22T16:47:14;26.83;;;20.53;;
35743;SDS011;21867;52.012;4.324;2023-04-22T16:49:41;24.63;;;18.43;;
35743;SDS011;21867;52.012;4.324;2023-04-22T16:52:09;28.03;;;20.27;;
35743;SDS011;21867;52.012;4.324;2023-04-22T16:54:36;25.10;;;19.40;;
35743;SDS011;21867;52.012;4.324;2023-04-22T16:57:03;26.10;;;21.13;;
35743;SDS011;21867;52.012;4.324;2023-04-22T16:59:31;27.30;;;20.30;;
35743;SDS011;21867;52.012;4.324;2023-04-22T17:02:00;20.77;;;17.50;;
35743;SDS011;21867;52.012;4.324;2023-04-22T17:04:28;25.40;;;20.47;;
35743;SDS011;21867;52.012;4.324;2023-04-22T17:06:55;22.13;;;17.87;;
35743;SDS011;21867;52.012;4.324;2023-04-22T17:09:22;29.37;;;21.27;;
35743;SDS011;21867;52.012;4.324;2023-04-22T17:11:50;24.07;;;20.00;;
35743;SDS011;21867;52.012;4.324;2023-04-22T17:14:17;23.93;;;17.70;;
35743;SDS011;21867;52.012;4.324;2023-04-22T17:16:45;27.10;;;19.73;;
35743;SDS011;21867;52.012;4.324;2023-04-22T17:19:13;30.70;;;16.03;;
35743;SDS011;21867;52.012;4.324;2023-04-22T17:21:41;22.60;;;16.47;;
35743;SDS011;21867;52.012;4.324;2023-04-22T17:24:08;27.77;;;21.20;;
35743;SDS011;21867;52.012;4.324;2023-04-22T17:26:35;21.97;;;17.07;;
35743;SDS011;21867;52.012;4.324;2023-04-22T17:29:02;31.47;;;22.33;;
35743;SDS011;21867;52.012;4.324;2023-04-22T17:31:30;25.53;;;18.50;;
35743;SDS011;21867;52.012;4.324;2023-04-22T17:33:57;31.77;;;22.60;;
35743;SDS011;21867;52.012;4.324;2023-04-22T18:02:22;25.17;;;19.00;;
35743;SDS011;21867;52.012;4.324;2023-04-22T18:04:50;31.07;;;22.07;;
35743;SDS011;21867;52.012;4.324;2023-04-22T18:07:17;31.40;;;22.33;;
35743;SDS011;21867;52.012;4.324;2023-04-22T18:09:44;30.10;;;21.97;;
35743;SDS011;21867;52.012;4.324;2023-04-22T18:12:12;29.53;;;21.67;;
35743;SDS011;21867;52.012;4.324;2023-04-22T18:14:40;31.90;;;22.10;;
35743;SDS011;21867;52.012;4.324;2023-04-22T18:17:08;29.53;;;22.10;;
35743;SDS011;21867;52.012;4.324;2023-04-22T18:19:36;28.23;;;21.97;;
35743;SDS011;21867;52.012;4.324;2023-04-22T18:22:04;28.40;;;20.00;;
35743;SDS011;21867;52.012;4.324;2023-04-22T18:24:32;28.87;;;21.03;;
35743;SDS011;21867;52.012;4.324;2023-04-22T18:26:59;31.33;;;21.80;;
35743;SDS011;21867;52.012;4.324;2023-04-22T18:29:26;26.87;;;20.07;;
35743;SDS011;21867;52.012;4.324;2023-04-22T18:31:55;30.73;;;21.73;;
35743;SDS011;21867;52.012;4.324;2023-04-22T18:34:26;28.87;;;21.10;;
35743;SDS011;21867;52.012;4.324;2023-04-22T18:36:54;35.30;;;20.73;;
35743;SDS011;21867;52.012;4.324;2023-04-22T18:39:22;29.73;;;21.53;;
35743;SDS011;21867;52.012;4.324;2023-04-22T18:41:49;28.40;;;20.73;;
35743;SDS011;21867;52.012;4.324;2023-04-22T18:44:17;30.57;;;20.87;;
35743;SDS011;21867;52.012;4.324;2023-04-22T18:46:44;31.67;;;21.97;;
35743;SDS011;21867;52.012;4.324;2023-04-22T18:49:12;31.13;;;21.87;;
35743;SDS011;21867;52.012;4.324;2023-04-22T18:51:39;31.33;;;21.03;;
35743;SDS011;21867;52.012;4.324;2023-04-22T18:54:08;26.40;;;19.90;;
35743;SDS011;21867;52.012;4.324;2023-04-22T18:56:36;26.50;;;18.87;;
35743;SDS011;21867;52.012;4.324;2023-04-22T18:59:03;25.17;;;19.30;;
35743;SDS011;21867;52.012;4.324;2023-04-22T19:01:31;93.30;;;58.90;;
35743;SDS011;21867;52.012;4.324;2023-04-22T19:03:58;34.03;;;22.93;;
35743;SDS011;21867;52.012;4.324;2023-04-22T19:11:44;20.23;;;16.77;;
35743;SDS011;21867;52.012;4.324;2023-04-22T19:14:11;20.27;;;17.00;;
35743;SDS011;21867;52.012;4.324;2023-04-22T19:16:39;21.90;;;17.17;;
35743;SDS011;21867;52.012;4.324;2023-04-22T19:19:06;20.37;;;15.87;;
35743;SDS011;21867;52.012;4.324;2023-04-22T19:21:39;21.27;;;17.60;;
35743;SDS011;21867;52.012;4.324;2023-04-22T19:27:43;21.27;;;17.37;;
35743;SDS011;21867;52.012;4.324;2023-04-22T19:30:11;23.47;;;17.47;;
35743;SDS011;21867;52.012;4.324;2023-04-22T19:32:39;22.50;;;18.13;;
35743;SDS011;21867;52.012;4.324;2023-04-22T19:35:06;24.53;;;17.90;;
35743;SDS011;21867;52.012;4.324;2023-04-22T19:37:34;26.40;;;18.17;;
35743;SDS011;21867;52.012;4.324;2023-04-22T19:40:01;28.57;;;20.07;;
35743;SDS011;21867;52.012;4.324;2023-04-22T19:42:28;29.17;;;21.30;;
35743;SDS011;21867;52.012;4.324;2023-04-22T19:44:57;27.90;;;20.57;;
35743;SDS011;21867;52.012;4.324;2023-04-22T19:47:25;30.73;;;21.63;;
35743;SDS011;21867;52.012;4.324;2023-04-22T19:49:52;29.50;;;22.70;;
35743;SDS011;21867;52.012;4.324;2023-04-22T19:52:20;33.50;;;22.53;;
35743;SDS011;21867;52.012;4.324;2023-04-22T19:54:47;33.67;;;24.23;;
35743;SDS011;21867;52.012;4.324;2023-04-22T20:03:52;32.23;;;23.33;;
35743;SDS011;21867;52.012;4.324;2023-04-22T20:06:19;34.73;;;24.73;;
35743;SDS011;21867;52.012;4.324;2023-04-22T20:08:49;29.60;;;22.73;;
35743;SDS011;21867;52.012;4.324;2023-04-22T20:11:17;31.93;;;22.97;;
35743;SDS011;21867;52.012;4.324;2023-04-22T20:13:45;29.07;;;23.30;;
35743;SDS011;21867;52.012;4.324;2023-04-22T20:16:17;29.43;;;21.60;;
35743;SDS011;21867;52.012;4.324;2023-04-22T20:18:45;35.77;;;25.10;;
35743;SDS011;21867;52.012;4.324;2023-04-22T20:21:14;35.60;;;25.13;;
35743;SDS011;21867;52.012;4.324;2023-04-22T20:23:41;34.50;;;25.23;;
35743;SDS011;21867;52.012;4.324;2023-04-22T20:26:27;36.00;;;24.83;;
35743;SDS011;21867;52.012;4.324;2023-04-22T20:31:50;33.97;;;23.97;;
35743;SDS011;21867;52.012;4.324;2023-04-22T20:34:17;29.47;;;22.90;;
35743;SDS011;21867;52.012;4.324;2023-04-22T20:36:46;35.40;;;24.37;;
35743;SDS011;21867;52.012;4.324;2023-04-22T20:39:14;36.67;;;25.07;;
35743;SDS011;21867;52.012;4.324;2023-04-22T20:41:42;36.20;;;25.23;;
35743;SDS011;21867;52.012;4.324;2023-04-22T20:44:09;35.73;;;24.87;;
35743;SDS011;21867;52.012;4.324;2023-04-22T20:46:45;32.03;;;23.90;;
35743;SDS011;21867;52.012;4.324;2023-04-22T20:49:13;36.97;;;26.20;;
35743;SDS011;21867;52.012;4.324;2023-04-22T20:51:40;37.17;;;27.57;;
35743;SDS011;21867;52.012;4.324;2023-04-22T20:54:09;35.47;;;26.13;;
35743;SDS011;21867;52.012;4.324;2023-04-22T21:05:47;30.50;;;23.50;;
35743;SDS011;21867;52.012;4.324;2023-04-22T21:08:17;30.27;;;23.50;;
35743;SDS011;21867;52.012;4.324;2023-04-22T21:10:46;30.63;;;23.27;;
35743;SDS011;21867;52.012;4.324;2023-04-22T21:13:14;30.67;;;22.33;;
35743;SDS011;21867;52.012;4.324;2023-04-22T21:15:43;31.03;;;24.10;;
35743;SDS011;21867;52.012;4.324;2023-04-22T21:18:10;30.60;;;24.53;;
35743;SDS011;21867;52.012;4.324;2023-04-22T21:20:40;29.97;;;23.67;;
35743;SDS011;21867;52.012;4.324;2023-04-22T21:23:09;32.53;;;23.80;;
35743;SDS011;21867;52.012;4.324;2023-04-22T21:25:36;28.27;;;23.47;;
35743;SDS011;21867;52.012;4.324;2023-04-22T21:28:06;29.20;;;23.37;;
35743;SDS011;21867;52.012;4.324;2023-04-22T21:30:34;30.73;;;24.37;;
35743;SDS011;21867;52.012;4.324;2023-04-22T21:33:01;30.57;;;23.70;;
35743;SDS011;21867;52.012;4.324;2023-04-22T21:35:28;31.40;;;25.63;;
35743;SDS011;21867;52.012;4.324;2023-04-22T21:37:56;31.77;;;23.93;;
35743;SDS011;21867;52.012;4.324;2023-04-22T21:40:23;31.20;;;25.07;;
35743;SDS011;21867;52.012;4.324;2023-04-22T21:42:50;33.57;;;26.33;;
35743;SDS011;21867;52.012;4.324;2023-04-22T21:45:19;31.83;;;25.27;;
35743;SDS011;21867;52.012;4.324;2023-04-22T21:47:46;30.57;;;25.07;;
35743;SDS011;21867;52.012;4.324;2023-04-22T21:50:13;35.27;;;28.77;;
35743;SDS011;21867;52.012;4.324;2023-04-22T21:52:41;32.10;;;27.00;;
35743;SDS011;21867;52.012;4.324;2023-04-22T21:55:08;35.20;;;29.10;;
35743;SDS011;21867;52.012;4.324;2023-04-22T21:57:35;32.83;;;27.23;;
35743;SDS011;21867;52.012;4.324;2023-04-22T22:00:03;31.97;;;27.07;;
35743;SDS011;21867;52.012;4.324;2023-04-22T22:02:32;30.23;;;25.67;;
35743;SDS011;21867;52.012;4.324;2023-04-22T22:04:59;32.00;;;27.43;;
35743;SDS011;21867;52.012;4.324;2023-04-22T22:07:27;31.10;;;26.83;;